KHNB/HNB METAR and TAF weather

Enter ICAO airport designator
Station Type Date Time Source
KHNB METAR 2019/10/14 04:56 UTC NOAA

KHNB 140456Z AUTO 21007KT 10SM CLR 10/04 A3001 RMK AO2 SLP161 T01000044


Station Type Date Time Source
KHNB Decoded METAR 2019/10/14 04:56 UTC NOAA

Huntingburg, IN, United States (KHNB) 38-15N 086-57W
Oct 14, 2019 - 12:56 AM EDT / 2019.10.14 0456 UTC
Wind: from the SSW (210 degrees) at 8 MPH (7 KT):0
Visibility: 10 mile(s):0
Sky conditions: clear
Temperature: 50.0 F (10.0 C)
Dew Point: 39.9 F (4.4 C)
Relative Humidity: 68%
Pressure (altimeter): 30.01 in. Hg (1016 hPa)
ob: KHNB 140456Z AUTO 21007KT 10SM CLR 10/04 A3001 RMK AO2 SLP161 T01000044
cycle: 5

Station Type Date Time Source
KHNB TAF 2019/10/14 06:21 UTC NOAA

TAF KHNB 140520Z 1406/1506 25006KT P6SM SKC

Example: see airport list